No data was retrieved for https://query.yahooapis.com/v1/public/yql?q=select+%2A+from+weather.forecast+where+woeid%3D963065&format=xml&u=c

No particular awareness of the weather is required.    There are no Weather-warnings

Kopaida air sports center. The private airport (CTAF) Kopaida (ZZZZ) located near Athens southwest of Castle village in Voiotia,
just one hour from leaving the National Road Athens - Lamia of Kifissia. The exact location of the airport is N 38 ° 27.41 'and E 023 ° 08.18'.



Kopaida NW more information Kopaida NW


Agios Dimitrios more information Agios Dimitrios


Kopaida live view NE

Athens SkydiveBecome a Skydiver

Spot fly AviationSpot Flight Academy



Weather Underground History page Text

Daily Summary for April 24, 2019 Units:  Metric    English   Both
« Previous Day
Next Day »
Daily Weekly Monthly Yearly Custom
  Current: High: Low: Average:
Temperature: -7.4 °C -17.8 °C -12.2 °C -9.3 °C
Dew Point: -11.1 °C -17.8 °C -13.7 °C -12.2 °C
Humidity: 65 % Humidity % 55 % 72 %
Wind Speed: 12.9 km/h 0 km/h 0 km/h 9.2 km/h
Wind Gust: 18.2 km/h 0 km/h - -
Wind:ENE - - SE
Pressure: 34604.9 hPa 0 hPa 34571.1 hPa -
Precipitation: 0 mm      
Historical Graphs
 
 
Tabular Data for April 24, 2019
Time Temperature Dew Point Pressure Wind Wind Speed Wind Gust Humidity Rainfall Rate (Hourly)
-17.8 °C -17.8 °C 0 hPa Calm     Humidity % 0 mm
00:00 -9.8 °C -13.3 °C 34594.8 hPa ESE 25.9 km/h 33.6 km/h 66 % 0 mm
00:05 -9.9 °C -13.2 °C 34594.8 hPa East 29.8 km/h 26.4 km/h 68 % 0 mm
00:10 -9.9 °C -13.2 °C 34601.5 hPa East 26.9 km/h 23.3 km/h 68 % 0 mm
00:15 -9.9 °C -13.3 °C 34604.9 hPa East 29.8 km/h 24.8 km/h 67 % 0 mm
00:20 -9.9 °C -13.2 °C 34604.9 hPa East 25.9 km/h 33.6 km/h 68 % 0 mm
00:25 -10.1 °C -13.1 °C 34608.3 hPa ESE 26.9 km/h 17.4 km/h 70 % 0 mm
00:30 -10.1 °C -13.1 °C 34608.3 hPa East 18.2 km/h 31.1 km/h 70 % 0 mm
00:35 -10.3 °C -13.2 °C 34598.1 hPa SSE 17.9 km/h 12.9 km/h 71 % 0 mm
00:40 -10.3 °C -13.1 °C 34591.4 hPa East 18.2 km/h 23.3 km/h 72 % 0 mm
00:45 -10.6 °C -13.2 °C 34594.8 hPa ENE 20.9 km/h 16.1 km/h 73 % 0 mm
00:50 -10.7 °C -13.1 °C 34584.6 hPa ENE 15 km/h 12.9 km/h 75 % 0 mm
00:55 -10.7 °C -13 °C 34581.2 hPa ENE 20.8 km/h 25.9 km/h 76 % 0 mm
01:00 -10.7 °C -12.9 °C 34571.1 hPa ENE 12.9 km/h 23.3 km/h 77 % 0 mm
01:05 -10.7 °C -12.9 °C 34571.1 hPa East 5.1 km/h 12.9 km/h 76 % 0 mm
01:10 -10.8 °C -13.1 °C 34574.4 hPa ESE 5.1 km/h 7.7 km/h 76 % 0 mm
01:15 -10.9 °C -13.1 °C 34581.2 hPa ENE 11.9 km/h 8.2 km/h 77 % 0 mm
01:20 -10.9 °C -13.1 °C 34577.8 hPa ENE 12.9 km/h 10.3 km/h 77 % 0 mm
01:25 -10.8 °C -13.1 °C 34584.6 hPa East 12.9 km/h 23.3 km/h 76 % 0 mm
01:30 -10.4 °C -13.2 °C 34591.4 hPa ESE 20.8 km/h 33.6 km/h 72 % 0 mm
01:35 -10.1 °C -13.2 °C 34594.8 hPa SSE 15.6 km/h 31.1 km/h 69 % 0 mm
01:40 -10.3 °C -13.2 °C 34594.8 hPa South 5.1 km/h 18.2 km/h 70 % 0 mm
01:45 -10.4 °C -13.2 °C 34591.4 hPa SSE 10.3 km/h 8.9 km/h 71 % 0 mm
01:50 -10.3 °C -13.2 °C 34591.4 hPa SE 2.6 km/h 15.6 km/h 71 % 0 mm
01:55 -10.4 °C -13.3 °C 34601.5 hPa WNW 11.9 km/h 10.3 km/h 71 % 0 mm
02:00 -10.6 °C -13.3 °C 34598.1 hPa WNW 15.6 km/h 20.8 km/h 72 % 0 mm
02:05 -10.3 °C -13.4 °C 34594.8 hPa NE 3.1 km/h 0.5 km/h 69 % 0 mm
02:10 -10.2 °C -13.4 °C 34594.8 hPa East 6 km/h 5 km/h 68 % 0 mm
02:15 -10.1 °C -13.4 °C 34598.1 hPa East 12.9 km/h 15.6 km/h 68 % 0 mm
02:20 -10.1 °C -13.4 °C 34591.4 hPa ENE 7.7 km/h 15.6 km/h 68 % 0 mm
02:25 -10.2 °C -13.4 °C 34591.4 hPa ENE 15 km/h 13.5 km/h 68 % 0 mm
02:30 -10.2 °C -13.4 °C 34588 hPa ENE 12.9 km/h 11.6 km/h 68 % 0 mm
02:35 -10.2 °C -13.7 °C 34584.6 hPa East 12.9 km/h 15.6 km/h 66 % 0 mm
02:40 -10.3 °C -13.6 °C 34584.6 hPa SE 11.9 km/h 11.9 km/h 67 % 0 mm
02:45 -10.5 °C -13.3 °C 34584.6 hPa SE 12.9 km/h 15.6 km/h 71 % 0 mm
02:50 -10.5 °C -13.6 °C 34577.8 hPa SE 12.9 km/h 20.8 km/h 69 % 0 mm
02:55 -10.2 °C -13.7 °C 34584.6 hPa ESE 2.6 km/h 12.9 km/h 66 % 0 mm
03:00 -10.2 °C -13.6 °C 34588 hPa Calm   5.1 km/h 66 % 0 mm
03:05 -10.2 °C -13.5 °C 34588 hPa ENE 5.1 km/h 7.7 km/h 67 % 0 mm
03:10 -10.3 °C -13.6 °C 34584.6 hPa East 5.1 km/h 10.3 km/h 67 % 0 mm
03:15 -10.3 °C -13.5 °C 34584.6 hPa SW 20.9 km/h 14.2 km/h 68 % 0 mm
03:20 -10.8 °C -13.7 °C 34581.2 hPa SSW 11.9 km/h 10.6 km/h 71 % 0 mm
03:25 -10.9 °C -13.7 °C 34577.8 hPa SSE 11.9 km/h 6.8 km/h 72 % 0 mm
03:30 -11.1 °C -13.7 °C 34584.6 hPa SSW 9 km/h 8 km/h 73 % 0 mm
03:35 -11.2 °C -13.6 °C 34577.8 hPa Calm     75 % 0 mm
03:40 -11.3 °C -13.7 °C 34571.1 hPa SSW 9 km/h 6.9 km/h 75 % 0 mm
03:45 -11.3 °C -13.6 °C 34574.4 hPa SSW 5.1 km/h 12.9 km/h 76 % 0 mm
03:50 -11.4 °C -13.4 °C 34584.6 hPa SW 15.6 km/h 15.6 km/h 78 % 0 mm
03:55 -11.5 °C -13.6 °C 34584.6 hPa SW 11.9 km/h 11.6 km/h 78 % 0 mm
04:00 -11.4 °C -13.5 °C 34584.6 hPa SW 7.7 km/h 10.3 km/h 78 % 0 mm
04:05 -11.4 °C -13.6 °C 34584.6 hPa SW 2.6 km/h 7.7 km/h 77 % 0 mm
04:10 -11.5 °C -13.6 °C 34581.2 hPa NNE 9 km/h 4.7 km/h 78 % 0 mm
04:15 -11.6 °C -13.7 °C 34581.2 hPa Calm   2.6 km/h 78 % 0 mm
04:20 -11.6 °C -13.6 °C 34577.8 hPa Calm     79 % 0 mm
04:25 -11.6 °C -13.7 °C 34581.2 hPa Calm     78 % 0 mm
04:30 -11.5 °C -13.7 °C 34588 hPa Calm   5.1 km/h 77 % 0 mm
04:35 -11.5 °C -13.6 °C 34598.1 hPa NW 6 km/h 4.2 km/h 78 % 0 mm
04:40 -11.6 °C -13.5 °C 34598.1 hPa WNW 5.1 km/h 10.3 km/h 80 % 0 mm
04:45 -11.7 °C -13.5 °C 34594.8 hPa WSW 5.1 km/h 7.7 km/h 80 % 0 mm
04:50 -11.6 °C -13.6 °C 34598.1 hPa WSW 9 km/h 6.4 km/h 79 % 0 mm
04:55 -11.5 °C -13.6 °C 34608.3 hPa WSW 12.9 km/h 12.7 km/h 78 % 0 mm
05:00 -11.5 °C -13.6 °C 34591.4 hPa WSW 5.1 km/h 12.9 km/h 78 % 0 mm
05:05 -11.5 °C -13.6 °C 34594.8 hPa SSE 6 km/h 5 km/h 78 % 0 mm
05:10 -11.5 °C -13.6 °C 34601.5 hPa Calm     78 % 0 mm
05:15 -11.6 °C -13.4 °C 34588 hPa Calm     80 % 0 mm
05:20 -11.7 °C -13.4 °C 34588 hPa ENE 2.6 km/h 12.9 km/h 81 % 0 mm
05:25 -11.7 °C -13.4 °C 34598.1 hPa Calm     82 % 0 mm
05:30 -11.8 °C -13.4 °C 34604.9 hPa Calm     82 % 0 mm
05:35 -11.8 °C -13.4 °C 34601.5 hPa Calm     82 % 0 mm
05:40 -11.8 °C -13.4 °C 34621.9 hPa West 15.6 km/h 13.2 km/h 82 % 0 mm
05:45 -11.8 °C -13.4 °C 34615.1 hPa West 2.6 km/h 15.6 km/h 83 % 0 mm
05:50 -11.9 °C -13.4 °C 34611.7 hPa West 2.6 km/h 5.1 km/h 83 % 0 mm
05:55 -11.9 °C -13.4 °C 34611.7 hPa Calm     83 % 0 mm
06:00 -11.9 °C -13.4 °C 34608.3 hPa Calm     83 % 0 mm
06:05 -11.9 °C -13.4 °C 34625.2 hPa WSW 15.6 km/h 18.2 km/h 84 % 0 mm
06:10 -12 °C -13.4 °C 34628.6 hPa WSW 11.9 km/h 10.9 km/h 84 % 0 mm
06:15 -12.1 °C -13.4 °C 34635.4 hPa North 6 km/h 2.1 km/h 85 % 0 mm
06:20 -12.1 °C -13.3 °C 34601.5 hPa NE 20.9 km/h 13.7 km/h 86 % 0 mm
06:25 -12.1 °C -13.4 °C 34618.5 hPa NE 3.1 km/h 0.5 km/h 86 % 0 mm
06:30 -12.1 °C -13.3 °C 34625.2 hPa ENE 5.1 km/h 5.1 km/h 87 % 0 mm
06:35 -12.1 °C -13.3 °C 34638.8 hPa West 12.9 km/h 10.6 km/h 87 % 0 mm
06:40 -12.2 °C -13.2 °C 34642.2 hPa West 7.7 km/h 15.6 km/h 88 % 0 mm
06:45 -12.2 °C -13.2 °C 34648.9 hPa West 7.7 km/h 12.9 km/h 88 % 0 mm
06:50 -12.2 °C -13.2 °C 34652.3 hPa WNW 6 km/h 5.1 km/h 88 % 0 mm
06:55 -12.2 °C -13.2 °C 34628.6 hPa Calm     88 % 0 mm
07:00 -12.1 °C -13.3 °C 34615.1 hPa NW 7.7 km/h 12.9 km/h 87 % 0 mm
07:05 -12.1 °C -13.2 °C 34645.6 hPa WSW 12.9 km/h 10.3 km/h 88 % 0 mm
07:10 -12.1 °C -13.2 °C 34648.9 hPa West 7.7 km/h 15.6 km/h 87 % 0 mm
07:15 -11.9 °C -13.2 °C 34652.3 hPa West 7.7 km/h 10.3 km/h 86 % 0 mm
07:20 -12 °C -13.2 °C 34635.4 hPa West 2.6 km/h 7.7 km/h 86 % 0 mm
07:25 -12 °C -13.2 °C 34638.8 hPa SE 10.3 km/h 9 km/h 87 % 0 mm
07:30 -12.1 °C -13.2 °C 34652.3 hPa SSE 2.6 km/h 10.3 km/h 87 % 0 mm
07:35 -12.1 °C -13.2 °C 34655.7 hPa Calm     87 % 0 mm
07:40 -12 °C -13.1 °C 34652.3 hPa Calm     88 % 0 mm
07:45 -12 °C -13 °C 34652.3 hPa Calm     88 % 0 mm
07:50 -12 °C -13 °C 34655.7 hPa Calm     88 % 0 mm
07:55 -11.9 °C -13 °C 34659.1 hPa Calm   5.1 km/h 88 % 0 mm
08:00 -11.9 °C -12.9 °C 34662.5 hPa Calm   5.1 km/h 88 % 0 mm
08:05 -11.8 °C -12.9 °C 34669.3 hPa SW 6 km/h 4.2 km/h 88 % 0 mm
08:10 -11.8 °C -12.8 °C 34672.6 hPa West 6 km/h 1.8 km/h 88 % 0 mm
08:15 -11.7 °C -12.7 °C 34676 hPa Calm   5.1 km/h 89 % 0 mm
08:20 -11.7 °C -12.7 °C 34679.4 hPa SW 5.1 km/h 7.7 km/h 89 % 0 mm
08:25 -11.6 °C -12.6 °C 34679.4 hPa West 5.1 km/h 5.1 km/h 89 % 0 mm
08:30 -11.6 °C -12.5 °C 34676 hPa WNW 5.1 km/h 10.3 km/h 89 % 0 mm
08:35 -11.4 °C -12.4 °C 34672.6 hPa Calm     88 % 0 mm
08:40 -11.3 °C -12.4 °C 34672.6 hPa Calm     87 % 0 mm
08:45 -11.2 °C -12.3 °C 34679.4 hPa Calm     87 % 0 mm
08:50 -11 °C -12.3 °C 34686.2 hPa West 9 km/h 5.1 km/h 86 % 0 mm
08:55 -10.7 °C -12.1 °C 34689.6 hPa West 9 km/h 7.6 km/h 85 % 0 mm
09:00 -10.4 °C -11.8 °C 34686.2 hPa West 5.1 km/h 10.3 km/h 85 % 0 mm
09:05 -10.2 °C -11.8 °C 34686.2 hPa NW 9 km/h 4.3 km/h 83 % 0 mm
09:10 -9.9 °C -11.6 °C 34689.6 hPa Calm     82 % 0 mm
09:15 -9.8 °C -11.7 °C 34682.8 hPa Calm     80 % 0 mm
09:20 -9.7 °C -11.8 °C 34686.2 hPa Calm     78 % 0 mm
09:25 -9.5 °C -11.7 °C 34686.2 hPa Calm     77 % 0 mm
09:30 -9.3 °C -11.7 °C 34682.8 hPa Calm     76 % 0 mm
09:35 -9.3 °C -11.7 °C 34686.2 hPa Calm     75 % 0 mm
09:40 -9.1 °C -11.6 °C 34689.6 hPa Calm     75 % 0 mm
09:45 -8.9 °C -11.5 °C 34682.8 hPa NE 3.1 km/h 0.3 km/h 74 % 0 mm
09:50 -8.8 °C -11.4 °C 34682.8 hPa NE 3.1 km/h   74 % 0 mm
09:55 -8.7 °C -11.3 °C 34679.4 hPa NE 9 km/h 5.6 km/h 73 % 0 mm
10:00 -8.7 °C -11.6 °C 34682.8 hPa NNW 5.1 km/h 10.3 km/h 72 % 0 mm
10:05 -8.8 °C -11.6 °C 34679.4 hPa West 9 km/h 9 km/h 73 % 0 mm
10:10 -8.8 °C -11.5 °C 34686.2 hPa SW 9 km/h 1.6 km/h 73 % 0 mm
10:15 -8.7 °C -11.4 °C 34682.8 hPa West 2.6 km/h 7.7 km/h 73 % 0 mm
10:20 -8.6 °C -11.4 °C 34679.4 hPa West 2.6 km/h 5.1 km/h 72 % 0 mm
10:25 -8.5 °C -11.2 °C 34679.4 hPa Calm     73 % 0 mm
10:30 -8.2 °C -11 °C 34676 hPa WNW 2.6 km/h 7.7 km/h 72 % 0 mm
10:35 -8.1 °C -11.3 °C 34689.6 hPa Calm     69 % 0 mm
10:40 -7.9 °C -11.2 °C 34689.6 hPa ENE 2.6 km/h 7.7 km/h 69 % 0 mm
10:45 -8.1 °C -11.2 °C 34693 hPa WNW 2.6 km/h 15.6 km/h 70 % 0 mm
10:50 -8.2 °C -11.2 °C 34686.2 hPa Calm     70 % 0 mm
10:55 -8.2 °C -11.3 °C 34679.4 hPa West 9 km/h 6 km/h 69 % 0 mm
11:00 -8.3 °C -11.4 °C 34686.2 hPa West 5.1 km/h 7.7 km/h 70 % 0 mm
11:05 -8.4 °C -11.4 °C 34679.4 hPa West 9 km/h 8.9 km/h 70 % 0 mm
11:10 -8.4 °C -11.6 °C 34686.2 hPa WSW 5.1 km/h 15.6 km/h 69 % 0 mm
11:15 -8.4 °C -11.6 °C 34686.2 hPa West 5.1 km/h 12.9 km/h 69 % 0 mm
11:20 -8.2 °C -11.3 °C 34686.2 hPa WSW 3.1 km/h 0.3 km/h 70 % 0 mm
11:25 -8 °C -11.2 °C 34676 hPa WNW 10.3 km/h 1 km/h 69 % 0 mm
11:30 -8 °C -11.4 °C 34679.4 hPa West 9 km/h 5 km/h 67 % 0 mm
11:35 -7.9 °C -11.3 °C 34686.2 hPa West 5.1 km/h 10.3 km/h 67 % 0 mm
11:40 -7.8 °C -11.1 °C 34686.2 hPa WNW 3.1 km/h 0.5 km/h 69 % 0 mm
11:45 -7.8 °C -11.5 °C 34682.8 hPa WSW 9 km/h 5.1 km/h 65 % 0 mm
11:50 -7.8 °C -11.3 °C 34689.6 hPa SW 9 km/h 5.6 km/h 66 % 0 mm
11:55 -7.6 °C -11.2 °C 34689.6 hPa Calm   7.7 km/h 66 % 0 mm
12:00 -7.2 °C -11.1 °C 34689.6 hPa NNW 2.6 km/h 7.7 km/h 64 % 0 mm
12:05 -7.1 °C -11.2 °C 34689.6 hPa ENE 5.1 km/h 10.3 km/h 63 % 0 mm
12:10 -7.3 °C -11.2 °C 34689.6 hPa East 5.1 km/h 7.7 km/h 64 % 0 mm
12:15 -7.4 °C -11.3 °C 34686.2 hPa Calm   5.1 km/h 63 % 0 mm
12:20 -7.3 °C -11.3 °C 34682.8 hPa Calm     63 % 0 mm
12:25 -6.9 °C -11.2 °C 34686.2 hPa East 9 km/h 5.6 km/h 61 % 0 mm
12:30 -7.1 °C -11.4 °C 34686.2 hPa ENE 11.9 km/h 10.1 km/h 61 % 0 mm
12:35 -7.2 °C -11.2 °C 34686.2 hPa ENE 2.6 km/h 12.9 km/h 63 % 0 mm
12:40 -7.2 °C -11.2 °C 34682.8 hPa NNW 3.1 km/h 0.3 km/h 63 % 0 mm
12:45 -7.2 °C -11.2 °C 34682.8 hPa NNE 6 km/h 1.6 km/h 63 % 0 mm
12:50 -6.9 °C -11.1 °C 34686.2 hPa Calm     62 % 0 mm
12:55 -6.4 °C -10.9 °C 34686.2 hPa Calm     60 % 0 mm
13:00 -6.2 °C -10.9 °C 34682.8 hPa NE 5.1 km/h 7.7 km/h 58 % 0 mm
13:05 -6.6 °C -11.1 °C 34679.4 hPa North 10.3 km/h 7.6 km/h 60 % 0 mm
13:10 -6.7 °C -11.2 °C 34679.4 hPa Calm   10.3 km/h 60 % 0 mm
13:15 -6.3 °C -10.8 °C 34676 hPa Calm     60 % 0 mm
13:20 -6.1 °C -10.7 °C 34676 hPa East 9 km/h 3.9 km/h 59 % 0 mm
13:25 -6.4 °C -10.9 °C 34676 hPa NE 17.9 km/h 9 km/h 60 % 0 mm
13:30 -6.6 °C -11.2 °C 34669.3 hPa ESE 11.9 km/h 5.5 km/h 59 % 0 mm
13:35 -6.7 °C -11.8 °C 34669.3 hPa East 15.6 km/h 20.8 km/h 55 % 0 mm
13:40 -6.8 °C -11.9 °C 34662.5 hPa East 17.9 km/h 12.9 km/h 55 % 0 mm
13:45 -6.8 °C -11.8 °C 34659.1 hPa East 15.6 km/h 20.8 km/h 56 % 0 mm
13:50 -6.8 °C -11.7 °C 34655.7 hPa ESE 15.6 km/h 23.3 km/h 57 % 0 mm
13:55 -6.8 °C -11.7 °C 34655.7 hPa ESE 15.6 km/h 10.6 km/h 57 % 0 mm
14:00 -6.8 °C -11.9 °C 34652.3 hPa East 15.6 km/h 25.9 km/h 55 % 0 mm
14:05 -6.8 °C -11.8 °C 34652.3 hPa ESE 20.9 km/h 16.1 km/h 56 % 0 mm
14:10 -6.8 °C -11.5 °C 34642.2 hPa East 15 km/h 10.3 km/h 58 % 0 mm
14:15 -6.8 °C -11.6 °C 34638.8 hPa ESE 18.2 km/h 20.8 km/h 57 % 0 mm
14:20 -6.7 °C -11.3 °C 34638.8 hPa ESE 7.7 km/h 20.8 km/h 59 % 0 mm
14:25 -6.7 °C -11.3 °C 34635.4 hPa East 17.9 km/h 13.7 km/h 59 % 0 mm
14:30 -6.7 °C -11.3 °C 34632 hPa ENE 15 km/h 12.7 km/h 59 % 0 mm
14:35 -6.7 °C -11 °C 34632 hPa East 12.9 km/h 15.6 km/h 61 % 0 mm
14:40 -6.7 °C -11 °C 34632 hPa ENE 9 km/h 9 km/h 61 % 0 mm
14:45 -6.8 °C -10.7 °C 34628.6 hPa ENE 20.9 km/h 18.3 km/h 64 % 0 mm
14:50 -7 °C -10.8 °C 34628.6 hPa ENE 23.3 km/h 31.1 km/h 65 % 0 mm
14:55 -7.1 °C -10.7 °C 34632 hPa NE 23.8 km/h 19.6 km/h 66 % 0 mm
15:00 -7.2 °C -11.1 °C 34632 hPa NE 23.3 km/h 31.1 km/h 64 % 0 mm
15:05 -7.3 °C -11 °C 34632 hPa ENE 29.8 km/h 25.4 km/h 65 % 0 mm
15:10 -7.3 °C -10.9 °C 34632 hPa ENE 26.9 km/h 20.9 km/h 66 % 0 mm
15:15 -7.3 °C -10.8 °C 34625.2 hPa ENE 18.2 km/h 31.1 km/h 67 % 0 mm
15:20 -7.4 °C -10.7 °C 34621.9 hPa ENE 23.8 km/h 19.5 km/h 68 % 0 mm
15:25 -7.4 °C -11 °C 34625.2 hPa ENE 29.8 km/h 26.4 km/h 66 % 0 mm
15:30 -7.3 °C -10.8 °C 34621.9 hPa NE 25.9 km/h 31.1 km/h 67 % 0 mm
15:35 -7.3 °C -10.9 °C 34621.9 hPa NE 20.8 km/h 31.1 km/h 66 % 0 mm
15:40 -7.3 °C -11 °C 34625.2 hPa ENE 18.2 km/h 23.3 km/h 65 % 0 mm
15:45 -7.2 °C -11.1 °C 34625.2 hPa ENE 18.2 km/h 17.1 km/h 64 % 0 mm
15:50 -7.2 °C -11.1 °C 34621.9 hPa ENE 15.6 km/h 18.2 km/h 64 % 0 mm
15:55 -7.2 °C -10.9 °C 34621.9 hPa ENE 7.7 km/h 15.6 km/h 65 % 0 mm
16:00 -7.1 °C -10.9 °C 34621.9 hPa ENE 5.1 km/h 10.3 km/h 64 % 0 mm
16:05 -7.1 °C -10.9 °C 34621.9 hPa ENE 12.9 km/h 15.6 km/h 64 % 0 mm
16:10 -7.1 °C -10.4 °C 34618.5 hPa NE 7.7 km/h 12.9 km/h 68 % 0 mm
16:15 -7.2 °C -10.7 °C 34615.1 hPa NE 10.3 km/h 10.1 km/h 67 % 0 mm
16:20 -7.2 °C -10.7 °C 34618.5 hPa NNE 6 km/h 5 km/h 67 % 0 mm
16:25 -7.1 °C -10.7 °C 34611.7 hPa Calm     66 % 0 mm
16:30 -7.1 °C -10.7 °C 34608.3 hPa NE 10.3 km/h 4.2 km/h 66 % 0 mm
16:35 -7.1 °C -10.8 °C 34608.3 hPa NE 7.7 km/h 10.3 km/h 65 % 0 mm
16:40 -7.1 °C -10.7 °C 34608.3 hPa NNE 9 km/h 5.6 km/h 66 % 0 mm
16:45 -7 °C -10.4 °C 34608.3 hPa NNE 9 km/h 8.9 km/h 67 % 0 mm
16:50 -6.9 °C -10.8 °C 34611.7 hPa NNE 5.1 km/h 10.3 km/h 64 % 0 mm
16:55 -6.8 °C -10.6 °C 34611.7 hPa NNE 2.6 km/h 7.7 km/h 65 % 0 mm
17:00 -6.8 °C -10.8 °C 34611.7 hPa NNE 5.1 km/h 10.3 km/h 63 % 0 mm
17:05 -6.8 °C -10.8 °C 34611.7 hPa North 9 km/h 8 km/h 63 % 0 mm
17:10 -6.7 °C -11 °C 34608.3 hPa Calm   10.3 km/h 61 % 0 mm
17:15 -6.7 °C -11.2 °C 34608.3 hPa NNE 5.1 km/h 7.7 km/h 60 % 0 mm
17:20 -6.8 °C -10.9 °C 34608.3 hPa NE 10.3 km/h 8.5 km/h 62 % 0 mm
17:25 -6.8 °C -10.7 °C 34615.1 hPa Calm     64 % 0 mm
17:30 -6.8 °C -11 °C 34615.1 hPa NE 10.3 km/h 9.7 km/h 62 % 0 mm
17:35 -6.9 °C -10.7 °C 34615.1 hPa NE 7.7 km/h 15.6 km/h 65 % 0 mm
17:40 -7 °C -10.4 °C 34615.1 hPa NE 15 km/h 12.9 km/h 67 % 0 mm
17:45 -7.1 °C -10.7 °C 34615.1 hPa NE 11.9 km/h 10.9 km/h 66 % 0 mm
17:50 -7.1 °C -10.6 °C 34611.7 hPa NE 7.7 km/h 12.9 km/h 67 % 0 mm
17:55 -7.2 °C -10.4 °C 34615.1 hPa ENE 10.3 km/h 10.1 km/h 69 % 0 mm
18:00 -7.2 °C -10.3 °C 34611.7 hPa NE 15.6 km/h 20.8 km/h 70 % 0 mm
18:05 -7.3 °C -10.4 °C 34615.1 hPa NE 18.2 km/h 20.8 km/h 70 % 0 mm
18:10 -7.4 °C -10.4 °C 34615.1 hPa NE 15.6 km/h 18.2 km/h 71 % 0 mm
18:15 -7.4 °C -10.4 °C 34615.1 hPa NE 18.2 km/h 23.3 km/h 71 % 0 mm
18:20 -7.6 °C -10.5 °C 34611.7 hPa NE 15 km/h 13.7 km/h 71 % 0 mm
18:25 -7.6 °C -10.5 °C 34615.1 hPa NNE 18.2 km/h 16.9 km/h 71 % 0 mm
18:30 -7.6 °C -10.5 °C 34611.7 hPa NE 23.8 km/h 18.2 km/h 71 % 0 mm
18:35 -7.6 °C -10.4 °C 34608.3 hPa NE 20.8 km/h 23.3 km/h 72 % 0 mm
18:40 -7.6 °C -10.3 °C 34604.9 hPa NE 20.9 km/h 16.9 km/h 73 % 0 mm
18:45 -7.6 °C -10.4 °C 34608.3 hPa NE 15.6 km/h 20.8 km/h 72 % 0 mm
18:50 -7.5 °C -10.6 °C 34608.3 hPa NE 12.9 km/h 23.3 km/h 70 % 0 mm
18:55 -7.4 °C -10.3 °C 34608.3 hPa ENE 12.9 km/h 12.2 km/h 72 % 0 mm
19:00 -7.4 °C -11.1 °C 34604.9 hPa ENE 12.9 km/h 18.2 km/h 65 % 0 mm
Kopaida airport
Compliments of Weather Underground - 5 mb

Script developed by  Jim McMurry - jmcmurry@mwt.net Adapted for the template by  Wim van der Kuil - Leuven-Template.eu

You find our weather info also at:

UK Metoffice

European Weather Network

WeatherCloud

Weather Underground

AWEKAS

Citizen Weather Observer Program (CWOP)

HAMweather, WeatherForYou, PWS Weather

Equipment we use:

Weather-station
Wireless Vantage Pro2

Weather-program
Weather Display

Wireless Vantage Pro2

Weather Display


Never base important decisions on this or any weather information obtained from the Internet

Kopaida airport (ZZZZ) - CTAF frequency : 119.700 - Tanagra(LGTG) MATZ 120.250

Airport Phone +306977612200, +302268041170, Contact Mr. George Papadopoulos.